sensor_id;sensor_type;location;lat;lon;timestamp;P1;durP1;ratioP1;P2;durP2;ratioP2
79122;SDS011;68526;44.600;26.032;2023-04-07T00:00:04;9.23;;;7.07;;
79122;SDS011;68526;44.600;26.032;2023-04-07T00:00:22;8.75;;;7.00;;
79122;SDS011;68526;44.600;26.032;2023-04-07T00:00:38;9.23;;;6.70;;
79122;SDS011;68526;44.600;26.032;2023-04-07T00:00:54;9.97;;;6.80;;
79122;SDS011;68526;44.600;26.032;2023-04-07T00:01:09;9.70;;;6.95;;
79122;SDS011;68526;44.600;26.032;2023-04-07T00:01:26;9.00;;;7.05;;
79122;SDS011;68526;44.600;26.032;2023-04-07T00:01:43;8.95;;;7.18;;
79122;SDS011;68526;44.600;26.032;2023-04-07T00:01:59;8.32;;;6.72;;
79122;SDS011;68526;44.600;26.032;2023-04-07T00:02:15;8.25;;;6.47;;
79122;SDS011;68526;44.600;26.032;2023-04-07T00:02:31;8.25;;;6.55;;
79122;SDS011;68526;44.600;26.032;2023-04-07T00:02:47;8.85;;;7.00;;
79122;SDS011;68526;44.600;26.032;2023-04-07T00:03:03;8.90;;;7.20;;
79122;SDS011;68526;44.600;26.032;2023-04-07T00:03:21;9.20;;;6.85;;
79122;SDS011;68526;44.600;26.032;2023-04-07T00:03:37;8.90;;;6.55;;
79122;SDS011;68526;44.600;26.032;2023-04-07T00:03:54;8.00;;;6.43;;
79122;SDS011;68526;44.600;26.032;2023-04-07T00:04:10;8.05;;;6.40;;
79122;SDS011;68526;44.600;26.032;2023-04-07T00:04:26;8.02;;;6.70;;
79122;SDS011;68526;44.600;26.032;2023-04-07T00:04:43;9.00;;;6.85;;
79122;SDS011;68526;44.600;26.032;2023-04-07T00:04:59;9.60;;;7.00;;
79122;SDS011;68526;44.600;26.032;2023-04-07T00:05:17;9.13;;;6.75;;
79122;SDS011;68526;44.600;26.032;2023-04-07T00:05:33;9.27;;;6.70;;
79122;SDS011;68526;44.600;26.032;2023-04-07T00:05:49;8.93;;;6.78;;
79122;SDS011;68526;44.600;26.032;2023-04-07T00:06:05;8.38;;;6.60;;
79122;SDS011;68526;44.600;26.032;2023-04-07T00:06:21;8.90;;;7.15;;
79122;SDS011;68526;44.600;26.032;2023-04-07T00:06:36;8.43;;;7.18;;
79122;SDS011;68526;44.600;26.032;2023-04-07T00:06:54;8.48;;;6.93;;
79122;SDS011;68526;44.600;26.032;2023-04-07T00:07:10;8.82;;;6.97;;
79122;SDS011;68526;44.600;26.032;2023-04-07T00:07:26;8.57;;;6.70;;
79122;SDS011;68526;44.600;26.032;2023-04-07T00:07:42;8.25;;;6.55;;
79122;SDS011;68526;44.600;26.032;2023-04-07T00:07:58;8.60;;;6.75;;
79122;SDS011;68526;44.600;26.032;2023-04-07T00:08:13;9.43;;;6.87;;
79122;SDS011;68526;44.600;26.032;2023-04-07T00:08:30;8.63;;;6.63;;
79122;SDS011;68526;44.600;26.032;2023-04-07T00:08:46;8.35;;;6.57;;
79122;SDS011;68526;44.600;26.032;2023-04-07T00:09:02;8.73;;;6.78;;
79122;SDS011;68526;44.600;26.032;2023-04-07T00:09:18;8.60;;;6.67;;
79122;SDS011;68526;44.600;26.032;2023-04-07T00:09:34;8.73;;;6.43;;
79122;SDS011;68526;44.600;26.032;2023-04-07T00:09:50;9.07;;;6.63;;
79122;SDS011;68526;44.600;26.032;2023-04-07T00:10:07;8.77;;;6.82;;
79122;SDS011;68526;44.600;26.032;2023-04-07T00:10:23;8.25;;;6.43;;
79122;SDS011;68526;44.600;26.032;2023-04-07T00:10:40;8.00;;;6.28;;
79122;SDS011;68526;44.600;26.032;2023-04-07T00:10:56;8.35;;;6.40;;
79122;SDS011;68526;44.600;26.032;2023-04-07T00:11:12;8.18;;;6.35;;
79122;SDS011;68526;44.600;26.032;2023-04-07T00:11:29;8.20;;;6.32;;
79122;SDS011;68526;44.600;26.032;2023-04-07T00:11:45;8.27;;;6.35;;
79122;SDS011;68526;44.600;26.032;2023-04-07T00:12:02;8.05;;;6.55;;
79122;SDS011;68526;44.600;26.032;2023-04-07T00:12:18;8.55;;;6.75;;
79122;SDS011;68526;44.600;26.032;2023-04-07T00:12:34;8.75;;;6.63;;
79122;SDS011;68526;44.600;26.032;2023-04-07T00:12:50;8.32;;;6.32;;
79122;SDS011;68526;44.600;26.032;2023-04-07T00:13:07;8.55;;;6.50;;
79122;SDS011;68526;44.600;26.032;2023-04-07T00:13:23;8.27;;;6.30;;
79122;SDS011;68526;44.600;26.032;2023-04-07T00:13:39;8.00;;;6.20;;
79122;SDS011;68526;44.600;26.032;2023-04-07T00:13:55;8.37;;;6.57;;
79122;SDS011;68526;44.600;26.032;2023-04-07T00:14:10;8.48;;;6.75;;
79122;SDS011;68526;44.600;26.032;2023-04-07T00:14:26;8.45;;;6.78;;
79122;SDS011;68526;44.600;26.032;2023-04-07T00:14:43;8.40;;;6.97;;
79122;SDS011;68526;44.600;26.032;2023-04-07T00:14:59;8.50;;;6.70;;
79122;SDS011;68526;44.600;26.032;2023-04-07T00:15:15;9.18;;;6.63;;
79122;SDS011;68526;44.600;26.032;2023-04-07T00:15:31;9.20;;;6.90;;
79122;SDS011;68526;44.600;26.032;2023-04-07T00:15:47;8.93;;;6.97;;
79122;SDS011;68526;44.600;26.032;2023-04-07T00:16:03;8.90;;;7.00;;
79122;SDS011;68526;44.600;26.032;2023-04-07T00:16:20;8.70;;;6.55;;
79122;SDS011;68526;44.600;26.032;2023-04-07T00:16:36;8.95;;;6.50;;
79122;SDS011;68526;44.600;26.032;2023-04-07T00:16:51;8.43;;;6.70;;
79122;SDS011;68526;44.600;26.032;2023-04-07T00:17:07;8.27;;;6.80;;
79122;SDS011;68526;44.600;26.032;2023-04-07T00:17:23;8.07;;;6.82;;
79122;SDS011;68526;44.600;26.032;2023-04-07T00:17:39;8.25;;;6.80;;
79122;SDS011;68526;44.600;26.032;2023-04-07T00:17:55;8.05;;;6.95;;
79122;SDS011;68526;44.600;26.032;2023-04-07T00:18:12;7.97;;;6.80;;
79122;SDS011;68526;44.600;26.032;2023-04-07T00:18:28;8.27;;;6.72;;
79122;SDS011;68526;44.600;26.032;2023-04-07T00:18:43;8.50;;;7.00;;
79122;SDS011;68526;44.600;26.032;2023-04-07T00:18:59;9.15;;;7.13;;
79122;SDS011;68526;44.600;26.032;2023-04-07T00:19:15;9.53;;;7.40;;
79122;SDS011;68526;44.600;26.032;2023-04-07T00:19:31;9.15;;;7.10;;
79122;SDS011;68526;44.600;26.032;2023-04-07T00:19:49;8.77;;;6.90;;
79122;SDS011;68526;44.600;26.032;2023-04-07T00:20:06;8.38;;;6.93;;
79122;SDS011;68526;44.600;26.032;2023-04-07T00:20:22;8.73;;;7.07;;
79122;SDS011;68526;44.600;26.032;2023-04-07T00:20:38;8.13;;;6.72;;
79122;SDS011;68526;44.600;26.032;2023-04-07T00:20:54;8.05;;;6.43;;
79122;SDS011;68526;44.600;26.032;2023-04-07T00:21:10;8.98;;;6.60;;
79122;SDS011;68526;44.600;26.032;2023-04-07T00:21:27;9.00;;;6.75;;
79122;SDS011;68526;44.600;26.032;2023-04-07T00:21:43;8.63;;;6.80;;
79122;SDS011;68526;44.600;26.032;2023-04-07T00:21:58;8.20;;;6.85;;
79122;SDS011;68526;44.600;26.032;2023-04-07T00:22:14;7.97;;;6.90;;
79122;SDS011;68526;44.600;26.032;2023-04-07T00:22:30;8.38;;;7.20;;
79122;SDS011;68526;44.600;26.032;2023-04-07T00:22:46;8.73;;;6.90;;
79122;SDS011;68526;44.600;26.032;2023-04-07T00:23:03;8.82;;;6.63;;
79122;SDS011;68526;44.600;26.032;2023-04-07T00:23:19;8.73;;;6.63;;
79122;SDS011;68526;44.600;26.032;2023-04-07T00:23:35;8.35;;;6.70;;
79122;SDS011;68526;44.600;26.032;2023-04-07T00:23:51;9.68;;;7.25;;
79122;SDS011;68526;44.600;26.032;2023-04-07T00:24:07;10.57;;;7.95;;
79122;SDS011;68526;44.600;26.032;2023-04-07T00:24:23;11.43;;;8.73;;
79122;SDS011;68526;44.600;26.032;2023-04-07T00:24:39;11.07;;;8.88;;
79122;SDS011;68526;44.600;26.032;2023-04-07T00:24:55;11.47;;;8.93;;
79122;SDS011;68526;44.600;26.032;2023-04-07T00:25:11;11.10;;;9.15;;
79122;SDS011;68526;44.600;26.032;2023-04-07T00:25:27;11.50;;;9.63;;
79122;SDS011;68526;44.600;26.032;2023-04-07T00:25:43;13.40;;;10.23;;
79122;SDS011;68526;44.600;26.032;2023-04-07T00:25:58;14.40;;;10.30;;
79122;SDS011;68526;44.600;26.032;2023-04-07T00:26:15;13.55;;;10.38;;
79122;SDS011;68526;44.600;26.032;2023-04-07T00:26:31;13.43;;;10.27;;
79122;SDS011;68526;44.600;26.032;2023-04-07T00:26:47;14.55;;;10.40;;
79122;SDS011;68526;44.600;26.032;2023-04-07T00:27:03;13.67;;;10.90;;
79122;SDS011;68526;44.600;26.032;2023-04-07T00:27:18;13.77;;;11.35;;
79122;SDS011;68526;44.600;26.032;2023-04-07T00:27:37;14.85;;;11.55;;
79122;SDS011;68526;44.600;26.032;2023-04-07T00:27:53;14.57;;;11.30;;
79122;SDS011;68526;44.600;26.032;2023-04-07T00:28:08;14.48;;;10.57;;
79122;SDS011;68526;44.600;26.032;2023-04-07T00:28:24;15.57;;;10.63;;
79122;SDS011;68526;44.600;26.032;2023-04-07T00:28:40;15.35;;;10.93;;
79122;SDS011;68526;44.600;26.032;2023-04-07T00:28:57;14.02;;;10.90;;
79122;SDS011;68526;44.600;26.032;2023-04-07T00:29:13;13.65;;;11.10;;
79122;SDS011;68526;44.600;26.032;2023-04-07T00:29:29;15.02;;;11.20;;
79122;SDS011;68526;44.600;26.032;2023-04-07T00:29:45;16.60;;;11.30;;
79122;SDS011;68526;44.600;26.032;2023-04-07T00:30:01;16.23;;;11.63;;
79122;SDS011;68526;44.600;26.032;2023-04-07T00:30:17;16.75;;;12.15;;
79122;SDS011;68526;44.600;26.032;2023-04-07T00:30:34;16.40;;;12.48;;
79122;SDS011;68526;44.600;26.032;2023-04-07T00:30:50;14.73;;;12.20;;
79122;SDS011;68526;44.600;26.032;2023-04-07T00:31:05;13.63;;;11.73;;
79122;SDS011;68526;44.600;26.032;2023-04-07T00:31:21;14.20;;;11.65;;
79122;SDS011;68526;44.600;26.032;2023-04-07T00:31:37;14.95;;;11.70;;
79122;SDS011;68526;44.600;26.032;2023-04-07T00:31:53;15.90;;;11.83;;
79122;SDS011;68526;44.600;26.032;2023-04-07T00:32:09;14.93;;;12.02;;
79122;SDS011;68526;44.600;26.032;2023-04-07T00:32:26;14.43;;;12.05;;
79122;SDS011;68526;44.600;26.032;2023-04-07T00:32:41;14.35;;;11.88;;
79122;SDS011;68526;44.600;26.032;2023-04-07T00:32:57;15.10;;;12.00;;
79122;SDS011;68526;44.600;26.032;2023-04-07T00:33:13;15.02;;;11.73;;
79122;SDS011;68526;44.600;26.032;2023-04-07T00:33:29;13.73;;;11.38;;
79122;SDS011;68526;44.600;26.032;2023-04-07T00:33:46;14.60;;;11.90;;
79122;SDS011;68526;44.600;26.032;2023-04-07T00:34:03;15.15;;;12.18;;
79122;SDS011;68526;44.600;26.032;2023-04-07T00:34:19;13.93;;;11.70;;
79122;SDS011;68526;44.600;26.032;2023-04-07T00:34:35;14.90;;;11.85;;
79122;SDS011;68526;44.600;26.032;2023-04-07T00:34:52;16.27;;;12.15;;
79122;SDS011;68526;44.600;26.032;2023-04-07T00:35:08;16.30;;;12.52;;
79122;SDS011;68526;44.600;26.032;2023-04-07T00:35:25;15.55;;;12.32;;
79122;SDS011;68526;44.600;26.032;2023-04-07T00:35:41;15.40;;;12.32;;
79122;SDS011;68526;44.600;26.032;2023-04-07T00:35:57;17.75;;;13.00;;
79122;SDS011;68526;44.600;26.032;2023-04-07T00:36:12;18.33;;;12.93;;
79122;SDS011;68526;44.600;26.032;2023-04-07T00:36:28;16.23;;;12.43;;
79122;SDS011;68526;44.600;26.032;2023-04-07T00:36:46;15.57;;;12.00;;
79122;SDS011;68526;44.600;26.032;2023-04-07T00:37:06;15.93;;;12.40;;
79122;SDS011;68526;44.600;26.032;2023-04-07T00:37:21;15.57;;;12.82;;
79122;SDS011;68526;44.600;26.032;2023-04-07T00:37:39;14.73;;;12.23;;
79122;SDS011;68526;44.600;26.032;2023-04-07T00:37:55;15.57;;;12.18;;
79122;SDS011;68526;44.600;26.032;2023-04-07T00:38:12;16.55;;;12.30;;
79122;SDS011;68526;44.600;26.032;2023-04-07T00:38:28;15.45;;;12.20;;
79122;SDS011;68526;44.600;26.032;2023-04-07T00:38:43;13.93;;;11.77;;
79122;SDS011;68526;44.600;26.032;2023-04-07T00:38:59;14.85;;;11.95;;
79122;SDS011;68526;44.600;26.032;2023-04-07T00:39:15;15.57;;;12.35;;
79122;SDS011;68526;44.600;26.032;2023-04-07T00:39:32;15.25;;;12.27;;
79122;SDS011;68526;44.600;26.032;2023-04-07T00:39:48;15.20;;;12.13;;
79122;SDS011;68526;44.600;26.032;2023-04-07T00:40:05;15.10;;;12.48;;
79122;SDS011;68526;44.600;26.032;2023-04-07T00:40:22;15.40;;;12.68;;
79122;SDS011;68526;44.600;26.032;2023-04-07T00:40:38;15.13;;;12.20;;
79122;SDS011;68526;44.600;26.032;2023-04-07T00:40:56;16.45;;;12.25;;
79122;SDS011;68526;44.600;26.032;2023-04-07T00:41:12;15.73;;;12.33;;
79122;SDS011;68526;44.600;26.032;2023-04-07T00:41:28;14.98;;;11.93;;
79122;SDS011;68526;44.600;26.032;2023-04-07T00:41:44;15.73;;;12.27;;
79122;SDS011;68526;44.600;26.032;2023-04-07T00:42:00;17.38;;;12.90;;
79122;SDS011;68526;44.600;26.032;2023-04-07T00:42:18;16.27;;;12.48;;
79122;SDS011;68526;44.600;26.032;2023-04-07T00:42:34;15.15;;;12.45;;
79122;SDS011;68526;44.600;26.032;2023-04-07T00:42:51;14.38;;;12.35;;
79122;SDS011;68526;44.600;26.032;2023-04-07T00:43:07;14.38;;;11.90;;
79122;SDS011;68526;44.600;26.032;2023-04-07T00:43:23;15.32;;;12.27;;
79122;SDS011;68526;44.600;26.032;2023-04-07T00:43:39;14.65;;;12.30;;
79122;SDS011;68526;44.600;26.032;2023-04-07T00:43:55;14.48;;;11.57;;
79122;SDS011;68526;44.600;26.032;2023-04-07T00:44:12;15.50;;;11.95;;
79122;SDS011;68526;44.600;26.032;2023-04-07T00:44:28;14.52;;;12.45;;
79122;SDS011;68526;44.600;26.032;2023-04-07T00:44:44;16.33;;;12.32;;
79122;SDS011;68526;44.600;26.032;2023-04-07T00:45:00;16.23;;;11.88;;
79122;SDS011;68526;44.600;26.032;2023-04-07T00:45:16;14.90;;;11.87;;
79122;SDS011;68526;44.600;26.032;2023-04-07T00:45:32;16.35;;;12.45;;
79122;SDS011;68526;44.600;26.032;2023-04-07T00:45:49;17.85;;;12.85;;
79122;SDS011;68526;44.600;26.032;2023-04-07T00:46:05;16.75;;;12.23;;
79122;SDS011;68526;44.600;26.032;2023-04-07T00:46:21;14.75;;;11.70;;
79122;SDS011;68526;44.600;26.032;2023-04-07T00:46:38;14.68;;;11.70;;
79122;SDS011;68526;44.600;26.032;2023-04-07T00:46:54;16.83;;;12.13;;
79122;SDS011;68526;44.600;26.032;2023-04-07T00:47:10;17.17;;;12.35;;
79122;SDS011;68526;44.600;26.032;2023-04-07T00:47:27;17.23;;;12.48;;
79122;SDS011;68526;44.600;26.032;2023-04-07T00:47:43;17.08;;;12.20;;
79122;SDS011;68526;44.600;26.032;2023-04-07T00:47:59;15.73;;;11.80;;
79122;SDS011;68526;44.600;26.032;2023-04-07T00:48:15;16.00;;;11.95;;
79122;SDS011;68526;44.600;26.032;2023-04-07T00:48:31;16.58;;;12.57;;
79122;SDS011;68526;44.600;26.032;2023-04-07T00:48:47;16.40;;;12.48;;
79122;SDS011;68526;44.600;26.032;2023-04-07T00:49:04;16.00;;;12.18;;
79122;SDS011;68526;44.600;26.032;2023-04-07T00:49:20;15.75;;;12.52;;
79122;SDS011;68526;44.600;26.032;2023-04-07T00:49:36;16.45;;;12.55;;
79122;SDS011;68526;44.600;26.032;2023-04-07T00:49:54;17.25;;;12.50;;
79122;SDS011;68526;44.600;26.032;2023-04-07T00:50:10;16.48;;;12.18;;
79122;SDS011;68526;44.600;26.032;2023-04-07T00:50:27;16.33;;;12.65;;
79122;SDS011;68526;44.600;26.032;2023-04-07T00:50:43;16.13;;;12.43;;
79122;SDS011;68526;44.600;26.032;2023-04-07T00:51:00;15.60;;;12.50;;
79122;SDS011;68526;44.600;26.032;2023-04-07T00:51:16;16.48;;;13.07;;
79122;SDS011;68526;44.600;26.032;2023-04-07T00:51:34;15.48;;;12.70;;
79122;SDS011;68526;44.600;26.032;2023-04-07T00:51:50;15.43;;;12.80;;
79122;SDS011;68526;44.600;26.032;2023-04-07T00:52:07;15.93;;;12.95;;
79122;SDS011;68526;44.600;26.032;2023-04-07T00:52:25;15.80;;;12.98;;
79122;SDS011;68526;44.600;26.032;2023-04-07T00:52:43;17.15;;;13.02;;
79122;SDS011;68526;44.600;26.032;2023-04-07T00:53:00;15.40;;;12.73;;
79122;SDS011;68526;44.600;26.032;2023-04-07T00:53:16;16.00;;;12.55;;
79122;SDS011;68526;44.600;26.032;2023-04-07T00:53:33;17.77;;;12.95;;
79122;SDS011;68526;44.600;26.032;2023-04-07T00:53:49;15.70;;;12.63;;
79122;SDS011;68526;44.600;26.032;2023-04-07T00:54:05;14.77;;;12.07;;
79122;SDS011;68526;44.600;26.032;2023-04-07T00:54:21;15.25;;;11.82;;
79122;SDS011;68526;44.600;26.032;2023-04-07T00:54:38;15.95;;;12.40;;
79122;SDS011;68526;44.600;26.032;2023-04-07T00:54:57;17.00;;;12.77;;
79122;SDS011;68526;44.600;26.032;2023-04-07T00:55:15;16.45;;;12.98;;
79122;SDS011;68526;44.600;26.032;2023-04-07T00:55:30;16.63;;;12.67;;
79122;SDS011;68526;44.600;26.032;2023-04-07T00:55:46;15.98;;;12.35;;
79122;SDS011;68526;44.600;26.032;2023-04-07T00:56:02;15.70;;;12.20;;
79122;SDS011;68526;44.600;26.032;2023-04-07T00:56:18;15.75;;;12.02;;
79122;SDS011;68526;44.600;26.032;2023-04-07T00:56:35;16.35;;;12.18;;
79122;SDS011;68526;44.600;26.032;2023-04-07T00:56:51;16.85;;;12.02;;
79122;SDS011;68526;44.600;26.032;2023-04-07T00:57:07;16.73;;;12.05;;
79122;SDS011;68526;44.600;26.032;2023-04-07T00:57:23;16.15;;;12.30;;
79122;SDS011;68526;44.600;26.032;2023-04-07T00:57:41;16.17;;;12.27;;
79122;SDS011;68526;44.600;26.032;2023-04-07T00:57:57;15.93;;;12.88;;
79122;SDS011;68526;44.600;26.032;2023-04-07T00:58:13;15.15;;;12.48;;
79122;SDS011;68526;44.600;26.032;2023-04-07T00:58:28;15.52;;;12.55;;
79122;SDS011;68526;44.600;26.032;2023-04-07T00:58:44;15.67;;;12.17;;
79122;SDS011;68526;44.600;26.032;2023-04-07T00:59:01;14.57;;;12.05;;
79122;SDS011;68526;44.600;26.032;2023-04-07T00:59:19;14.38;;;12.48;;
79122;SDS011;68526;44.600;26.032;2023-04-07T00:59:36;15.45;;;12.73;;
79122;SDS011;68526;44.600;26.032;2023-04-07T00:59:52;15.00;;;12.27;;
79122;SDS011;68526;44.600;26.032;2023-04-07T01:00:09;14.93;;;12.55;;
79122;SDS011;68526;44.600;26.032;2023-04-07T01:00:25;15.20;;;12.50;;
79122;SDS011;68526;44.600;26.032;2023-04-07T01:00:44;14.55;;;12.00;;
79122;SDS011;68526;44.600;26.032;2023-04-07T01:01:06;15.43;;;11.98;;
79122;SDS011;68526;44.600;26.032;2023-04-07T01:01:25;16.40;;;12.30;;
79122;SDS011;68526;44.600;26.032;2023-04-07T01:01:46;15.80;;;12.40;;
79122;SDS011;68526;44.600;26.032;2023-04-07T01:02:09;15.07;;;12.10;;
79122;SDS011;68526;44.600;26.032;2023-04-07T01:02:31;17.02;;;12.00;;
79122;SDS011;68526;44.600;26.032;2023-04-07T01:02:52;16.10;;;12.30;;
79122;SDS011;68526;44.600;26.032;2023-04-07T01:03:15;14.35;;;12.13;;
79122;SDS011;68526;44.600;26.032;2023-04-07T01:03:38;15.77;;;12.20;;
79122;SDS011;68526;44.600;26.032;2023-04-07T01:04:01;17.33;;;12.95;;
79122;SDS011;68526;44.600;26.032;2023-04-07T01:04:26;16.02;;;12.85;;
79122;SDS011;68526;44.600;26.032;2023-04-07T01:04:48;15.32;;;12.82;;
79122;SDS011;68526;44.600;26.032;2023-04-07T01:05:12;14.90;;;12.65;;
79122;SDS011;68526;44.600;26.032;2023-04-07T01:05:34;16.55;;;12.30;;
79122;SDS011;68526;44.600;26.032;2023-04-07T01:05:58;17.15;;;12.40;;
79122;SDS011;68526;44.600;26.032;2023-04-07T01:06:16;16.17;;;12.35;;
79122;SDS011;68526;44.600;26.032;2023-04-07T01:06:41;15.25;;;12.25;;
79122;SDS011;68526;44.600;26.032;2023-04-07T01:07:03;15.32;;;12.30;;
79122;SDS011;68526;44.600;26.032;2023-04-07T01:07:28;16.17;;;12.35;;
79122;SDS011;68526;44.600;26.032;2023-04-07T01:07:52;16.05;;;12.38;;
79122;SDS011;68526;44.600;26.032;2023-04-07T01:08:16;15.70;;;12.20;;
79122;SDS011;68526;44.600;26.032;2023-04-07T01:08:37;17.13;;;12.73;;
79122;SDS011;68526;44.600;26.032;2023-04-07T01:09:04;16.30;;;12.60;;
79122;SDS011;68526;44.600;26.032;2023-04-07T01:09:24;15.75;;;12.10;;
79122;SDS011;68526;44.600;26.032;2023-04-07T01:09:45;15.65;;;12.40;;
79122;SDS011;68526;44.600;26.032;2023-04-07T01:10:09;16.10;;;12.80;;
79122;SDS011;68526;44.600;26.032;2023-04-07T01:10:32;16.83;;;12.97;;
79122;SDS011;68526;44.600;26.032;2023-04-07T01:10:59;16.63;;;13.00;;
79122;SDS011;68526;44.600;26.032;2023-04-07T01:11:22;15.13;;;12.32;;
79122;SDS011;68526;44.600;26.032;2023-04-07T01:11:43;15.00;;;12.40;;
79122;SDS011;68526;44.600;26.032;2023-04-07T01:12:04;16.30;;;12.43;;
79122;SDS011;68526;44.600;26.032;2023-04-07T01:12:28;15.40;;;12.57;;
79122;SDS011;68526;44.600;26.032;2023-04-07T01:12:51;16.02;;;12.80;;
79122;SDS011;68526;44.600;26.032;2023-04-07T01:13:16;13.80;;;11.93;;
79122;SDS011;68526;44.600;26.032;2023-04-07T01:13:39;15.15;;;12.32;;
79122;SDS011;68526;44.600;26.032;2023-04-07T01:13:59;16.17;;;12.85;;
79122;SDS011;68526;44.600;26.032;2023-04-07T01:14:17;15.88;;;12.68;;
79122;SDS011;68526;44.600;26.032;2023-04-07T01:14:34;15.82;;;12.93;;
79122;SDS011;68526;44.600;26.032;2023-04-07T01:14:57;17.15;;;12.95;;
79122;SDS011;68526;44.600;26.032;2023-04-07T01:15:18;15.35;;;12.45;;
79122;SDS011;68526;44.600;26.032;2023-04-07T01:15:37;14.88;;;12.48;;
79122;SDS011;68526;44.600;26.032;2023-04-07T01:15:56;15.38;;;12.32;;
79122;SDS011;68526;44.600;26.032;2023-04-07T01:16:17;16.90;;;12.65;;
79122;SDS011;68526;44.600;26.032;2023-04-07T01:16:38;17.42;;;13.38;;
79122;SDS011;68526;44.600;26.032;2023-04-07T01:16:57;15.88;;;12.80;;
79122;SDS011;68526;44.600;26.032;2023-04-07T01:17:16;16.35;;;12.50;;
79122;SDS011;68526;44.600;26.032;2023-04-07T01:17:36;15.95;;;12.32;;
79122;SDS011;68526;44.600;26.032;2023-04-07T01:17:59;15.45;;;12.40;;
79122;SDS011;68526;44.600;26.032;2023-04-07T01:18:22;16.27;;;12.80;;
79122;SDS011;68526;44.600;26.032;2023-04-07T01:18:42;15.43;;;12.85;;
79122;SDS011;68526;44.600;26.032;2023-04-07T01:19:05;15.50;;;12.23;;
79122;SDS011;68526;44.600;26.032;2023-04-07T01:19:31;15.05;;;12.23;;
79122;SDS011;68526;44.600;26.032;2023-04-07T01:19:50;14.88;;;12.30;;
79122;SDS011;68526;44.600;26.032;2023-04-07T01:20:13;16.27;;;13.07;;
79122;SDS011;68526;44.600;26.032;2023-04-07T01:20:35;15.65;;;12.65;;
79122;SDS011;68526;44.600;26.032;2023-04-07T01:20:52;15.93;;;12.63;;
79122;SDS011;68526;44.600;26.032;2023-04-07T01:21:15;16.55;;;12.38;;
79122;SDS011;68526;44.600;26.032;2023-04-07T01:21:33;16.30;;;12.65;;
79122;SDS011;68526;44.600;26.032;2023-04-07T01:21:51;15.50;;;12.23;;
79122;SDS011;68526;44.600;26.032;2023-04-07T01:22:12;15.38;;;12.07;;
79122;SDS011;68526;44.600;26.032;2023-04-07T01:22:31;15.70;;;12.45;;
79122;SDS011;68526;44.600;26.032;2023-04-07T01:22:54;15.50;;;12.40;;
79122;SDS011;68526;44.600;26.032;2023-04-07T01:23:17;14.27;;;12.05;;
79122;SDS011;68526;44.600;26.032;2023-04-07T01:23:48;17.45;;;12.32;;
79122;SDS011;68526;44.600;26.032;2023-04-07T01:24:23;16.48;;;13.00;;
79122;SDS011;68526;44.600;26.032;2023-04-07T01:25:01;14.38;;;12.35;;
79122;SDS011;68526;44.600;26.032;2023-04-07T01:25:34;16.38;;;12.90;;
79122;SDS011;68526;44.600;26.032;2023-04-07T01:26:10;15.57;;;12.38;;
79122;SDS011;68526;44.600;26.032;2023-04-07T01:26:34;15.23;;;12.77;;
79122;SDS011;68526;44.600;26.032;2023-04-07T01:26:50;15.93;;;13.05;;
79122;SDS011;68526;44.600;26.032;2023-04-07T01:27:14;16.02;;;13.00;;
79122;SDS011;68526;44.600;26.032;2023-04-07T01:27:37;15.85;;;12.98;;
79122;SDS011;68526;44.600;26.032;2023-04-07T01:28:09;15.55;;;12.20;;
79122;SDS011;68526;44.600;26.032;2023-04-07T01:29:29;14.68;;;12.45;;
79122;SDS011;68526;44.600;26.032;2023-04-07T01:29:49;16.35;;;13.00;;
79122;SDS011;68526;44.600;26.032;2023-04-07T01:30:09;16.55;;;13.20;;
79122;SDS011;68526;44.600;26.032;2023-04-07T01:30:27;15.30;;;12.25;;
79122;SDS011;68526;44.600;26.032;2023-04-07T01:30:45;15.48;;;12.77;;
79122;SDS011;68526;44.600;26.032;2023-04-07T01:31:02;15.53;;;12.93;;
79122;SDS011;68526;44.600;26.032;2023-04-07T01:31:19;15.93;;;12.35;;
79122;SDS011;68526;44.600;26.032;2023-04-07T01:31:38;15.38;;;12.13;;
79122;SDS011;68526;44.600;26.032;2023-04-07T01:31:55;15.65;;;12.88;;
79122;SDS011;68526;44.600;26.032;2023-04-07T01:32:14;15.40;;;12.88;;
79122;SDS011;68526;44.600;26.032;2023-04-07T01:32:34;15.77;;;13.40;;
79122;SDS011;68526;44.600;26.032;2023-04-07T01:32:53;16.13;;;13.48;;
79122;SDS011;68526;44.600;26.032;2023-04-07T01:33:12;15.85;;;12.70;;
79122;SDS011;68526;44.600;26.032;2023-04-07T01:33:30;15.73;;;12.55;;
79122;SDS011;68526;44.600;26.032;2023-04-07T01:33:47;15.50;;;12.38;;
79122;SDS011;68526;44.600;26.032;2023-04-07T01:34:05;16.00;;;12.43;;
79122;SDS011;68526;44.600;26.032;2023-04-07T01:34:25;16.55;;;13.00;;
79122;SDS011;68526;44.600;26.032;2023-04-07T01:34:42;15.30;;;13.02;;
79122;SDS011;68526;44.600;26.032;2023-04-07T01:35:02;15.05;;;12.75;;
79122;SDS011;68526;44.600;26.032;2023-04-07T01:35:20;14.65;;;12.13;;
79122;SDS011;68526;44.600;26.032;2023-04-07T01:35:38;16.20;;;13.07;;
79122;SDS011;68526;44.600;26.032;2023-04-07T01:35:56;15.65;;;13.13;;
79122;SDS011;68526;44.600;26.032;2023-04-07T01:36:15;16.83;;;12.63;;
79122;SDS011;68526;44.600;26.032;2023-04-07T01:36:31;17.58;;;12.48;;
79122;SDS011;68526;44.600;26.032;2023-04-07T01:36:48;16.15;;;12.52;;
79122;SDS011;68526;44.600;26.032;2023-04-07T01:37:05;15.27;;;12.55;;
79122;SDS011;68526;44.600;26.032;2023-04-07T01:37:23;16.52;;;12.57;;
79122;SDS011;68526;44.600;26.032;2023-04-07T01:37:41;17.92;;;13.27;;
79122;SDS011;68526;44.600;26.032;2023-04-07T01:38:00;15.57;;;12.77;;
79122;SDS011;68526;44.600;26.032;2023-04-07T01:38:17;16.23;;;12.55;;
79122;SDS011;68526;44.600;26.032;2023-04-07T01:38:34;17.02;;;12.77;;
79122;SDS011;68526;44.600;26.032;2023-04-07T01:38:50;16.38;;;12.90;;
79122;SDS011;68526;44.600;26.032;2023-04-07T01:39:08;15.40;;;13.05;;
79122;SDS011;68526;44.600;26.032;2023-04-07T01:39:25;15.82;;;13.43;;
79122;SDS011;68526;44.600;26.032;2023-04-07T01:39:42;15.98;;;13.00;;
79122;SDS011;68526;44.600;26.032;2023-04-07T01:39:58;14.93;;;12.45;;
79122;SDS011;68526;44.600;26.032;2023-04-07T01:40:14;14.98;;;12.55;;
79122;SDS011;68526;44.600;26.032;2023-04-07T01:40:32;15.95;;;12.88;;
79122;SDS011;68526;44.600;26.032;2023-04-07T01:40:49;15.27;;;12.57;;
79122;SDS011;68526;44.600;26.032;2023-04-07T01:41:06;16.33;;;12.40;;
79122;SDS011;68526;44.600;26.032;2023-04-07T01:41:24;15.63;;;12.30;;
79122;SDS011;68526;44.600;26.032;2023-04-07T01:41:41;15.52;;;12.85;;
79122;SDS011;68526;44.600;26.032;2023-04-07T01:42:00;16.48;;;13.10;;
79122;SDS011;68526;44.600;26.032;2023-04-07T01:42:16;18.25;;;13.15;;
79122;SDS011;68526;44.600;26.032;2023-04-07T01:42:33;16.48;;;12.88;;
79122;SDS011;68526;44.600;26.032;2023-04-07T01:42:51;15.68;;;12.40;;
79122;SDS011;68526;44.600;26.032;2023-04-07T01:43:08;16.13;;;12.57;;
79122;SDS011;68526;44.600;26.032;2023-04-07T01:43:25;15.90;;;12.90;;
79122;SDS011;68526;44.600;26.032;2023-04-07T01:43:43;15.15;;;12.85;;
79122;SDS011;68526;44.600;26.032;2023-04-07T01:44:01;15.32;;;12.20;;
79122;SDS011;68526;44.600;26.032;2023-04-07T01:44:18;16.13;;;11.77;;
79122;SDS011;68526;44.600;26.032;2023-04-07T01:44:36;18.20;;;12.73;;
79122;SDS011;68526;44.600;26.032;2023-04-07T01:44:53;17.70;;;12.98;;